createdAt,value
2022-10-30T00:00:02.442Z,101204.00
2022-10-30T00:02:29.073Z,101197.88
2022-10-30T00:04:55.823Z,101202.28
2022-10-30T00:07:22.546Z,101199.59
2022-10-30T00:09:49.154Z,101199.47
2022-10-30T00:12:15.765Z,101199.47
2022-10-30T00:14:42.357Z,101193.28
2022-10-30T00:17:08.953Z,101194.16
2022-10-30T00:19:35.591Z,101200.31
2022-10-30T00:24:29.127Z,101199.63
2022-10-30T00:26:55.844Z,101201.50
2022-10-30T00:29:25.134Z,101191.78
2022-10-30T00:31:52.615Z,101190.03
2022-10-30T00:34:20.038Z,101176.00
2022-10-30T00:36:46.704Z,101179.59
2022-10-30T00:39:16.031Z,101182.13
2022-10-30T00:41:42.856Z,101185.75
2022-10-30T00:44:32.326Z,101178.72
2022-10-30T00:47:00.212Z,101173.41
2022-10-30T00:49:26.862Z,101167.25
2022-10-30T00:51:54.625Z,101169.09
2022-10-30T00:54:22.246Z,101169.06
2022-10-30T00:56:49.443Z,101167.41
2022-10-30T00:59:18.742Z,101157.66
2022-10-30T01:01:46.327Z,101158.66
2022-10-30T01:04:13.513Z,101163.88
2022-10-30T01:06:42.145Z,101152.56
2022-10-30T01:09:08.836Z,101158.81
2022-10-30T01:11:35.517Z,101150.91
2022-10-30T01:14:05.272Z,101149.19
2022-10-30T01:16:56.518Z,101147.47
2022-10-30T01:22:38.543Z,101144.97
2022-10-30T01:25:33.118Z,101150.28
2022-10-30T01:28:28.874Z,101141.47
2022-10-30T01:31:17.880Z,101137.06
2022-10-30T01:33:57.114Z,101124.69
2022-10-30T01:36:32.761Z,101129.09
2022-10-30T01:39:12.026Z,101132.59
2022-10-30T01:41:38.669Z,101128.25
2022-10-30T01:44:09.379Z,101119.34
2022-10-30T01:46:49.335Z,101115.88
2022-10-30T01:49:44.133Z,101107.94
2022-10-30T01:52:16.972Z,101113.34
2022-10-30T01:55:11.571Z,101113.41
2022-10-30T01:57:50.100Z,101109.88
2022-10-30T02:00:20.495Z,101101.94
2022-10-30T02:02:49.247Z,101101.94
2022-10-30T02:05:26.302Z,101103.69
2022-10-30T02:07:52.978Z,101101.94
2022-10-30T02:10:22.120Z,101098.41
2022-10-30T02:12:48.846Z,101103.56
2022-10-30T02:15:15.922Z,101101.00
2022-10-30T02:17:42.709Z,101100.06
2022-10-30T02:20:19.516Z,101095.75
2022-10-30T02:22:47.113Z,101086.06
2022-10-30T02:25:14.284Z,101090.47
2022-10-30T02:27:40.921Z,101087.06
2022-10-30T02:30:08.488Z,101086.19
2022-10-30T02:32:35.119Z,101079.16
2022-10-30T02:35:01.813Z,101079.16
2022-10-30T02:37:28.483Z,101075.59
2022-10-30T02:39:55.125Z,101078.28
2022-10-30T02:42:23.221Z,101077.38
2022-10-30T02:44:49.965Z,101074.75
2022-10-30T02:47:16.552Z,101074.84
2022-10-30T02:49:43.140Z,101066.91
2022-10-30T02:52:09.738Z,101066.06
2022-10-30T02:54:36.582Z,101065.19
2022-10-30T02:57:03.277Z,101070.59
2022-10-30T02:59:30.199Z,101059.22
2022-10-30T03:01:56.962Z,101058.38
2022-10-30T03:04:23.632Z,101059.25
2022-10-30T03:06:50.203Z,101053.13
2022-10-30T03:09:16.879Z,101059.31
2022-10-30T03:11:44.468Z,101066.44
2022-10-30T03:14:11.508Z,101067.34
2022-10-30T03:16:38.494Z,101073.50
2022-10-30T03:19:05.435Z,101069.13
2022-10-30T03:21:32.067Z,101066.47
2022-10-30T03:23:59.031Z,101076.25
2022-10-30T03:26:25.644Z,101081.53
2022-10-30T03:28:52.243Z,101081.69
2022-10-30T03:31:19.703Z,101082.56
2022-10-30T03:33:46.613Z,101082.56
2022-10-30T03:36:14.666Z,101086.16
2022-10-30T03:38:41.681Z,101092.34
2022-10-30T03:41:08.453Z,101096.66
2022-10-30T03:43:35.206Z,101113.53
2022-10-30T03:46:01.990Z,101101.19
2022-10-30T03:48:29.666Z,101107.41
2022-10-30T03:50:57.927Z,101109.25
2022-10-30T03:53:26.299Z,101107.53
2022-10-30T03:55:53.563Z,101107.47
2022-10-30T03:58:20.135Z,101105.69
2022-10-30T04:00:46.714Z,101119.84
2022-10-30T04:03:13.304Z,101117.22
2022-10-30T04:05:40.259Z,101127.00
2022-10-30T04:08:12.052Z,101124.41
2022-10-30T04:10:45.578Z,101127.94
2022-10-30T04:13:13.496Z,101122.66
2022-10-30T04:15:40.684Z,101121.00
2022-10-30T04:18:07.772Z,101120.06
2022-10-30T04:20:34.518Z,101122.72
2022-10-30T04:23:03.520Z,101120.13
2022-10-30T04:25:30.730Z,101115.72
2022-10-30T04:27:57.693Z,101114.00
2022-10-30T04:30:27.938Z,101107.78
2022-10-30T04:32:56.616Z,101103.38
2022-10-30T04:35:29.203Z,101113.06
2022-10-30T04:38:01.664Z,101110.44
2022-10-30T04:40:31.346Z,101109.56
2022-10-30T04:42:58.514Z,101109.56
2022-10-30T04:45:25.802Z,101109.56
2022-10-30T04:47:52.938Z,101099.88
2022-10-30T04:50:19.917Z,101098.97
2022-10-30T04:52:46.541Z,101094.53
2022-10-30T04:55:13.244Z,101091.84
2022-10-30T04:57:39.889Z,101100.63
2022-10-30T05:00:08.031Z,101096.22
2022-10-30T05:02:36.774Z,101090.06
2022-10-30T05:05:04.616Z,101090.06
2022-10-30T05:07:31.215Z,101090.00
2022-10-30T05:09:57.837Z,101090.00
2022-10-30T05:12:24.435Z,101081.22
2022-10-30T05:14:51.042Z,101093.63
2022-10-30T05:17:17.701Z,101095.44
2022-10-30T05:19:44.404Z,101088.44
2022-10-30T05:22:11.010Z,101079.72
2022-10-30T05:24:37.612Z,101076.97
2022-10-30T05:27:04.231Z,101073.50
2022-10-30T05:29:30.890Z,101078.00
2022-10-30T05:31:57.479Z,101078.03
2022-10-30T05:34:24.094Z,101071.84
2022-10-30T05:36:50.723Z,101069.31
2022-10-30T05:39:17.323Z,101070.22
2022-10-30T05:41:43.925Z,101069.34
2022-10-30T05:44:10.548Z,101067.59
2022-10-30T05:46:37.231Z,101061.38
2022-10-30T05:49:04.058Z,101061.38
2022-10-30T05:51:30.698Z,101064.88
2022-10-30T05:53:57.288Z,101065.72
2022-10-30T05:56:24.019Z,101070.13
2022-10-30T05:58:50.692Z,101065.66
2022-10-30T06:01:17.593Z,101063.81
2022-10-30T06:03:44.682Z,101063.91
2022-10-30T06:06:11.275Z,101063.09
2022-10-30T06:08:37.913Z,101077.19
2022-10-30T06:11:04.511Z,101073.59
2022-10-30T06:13:31.119Z,101072.66
2022-10-30T06:15:57.737Z,101075.28
2022-10-30T06:18:24.562Z,101075.34
2022-10-30T06:20:51.226Z,101080.63
2022-10-30T06:23:17.796Z,101076.25
2022-10-30T06:25:46.738Z,101079.72
2022-10-30T06:28:14.244Z,101074.47
2022-10-30T06:30:40.799Z,101064.72
2022-10-30T06:33:07.787Z,101070.84
2022-10-30T06:35:34.522Z,101074.31
2022-10-30T06:38:01.133Z,101069.94
2022-10-30T06:40:29.955Z,101069.03
2022-10-30T06:42:57.896Z,101066.34
2022-10-30T06:45:25.060Z,101062.75
2022-10-30T06:47:52.312Z,101062.69
2022-10-30T06:50:20.907Z,101059.97
2022-10-30T06:52:48.487Z,101058.25
2022-10-30T06:55:15.437Z,101044.97
2022-10-30T06:57:42.210Z,101041.19
2022-10-30T07:00:09.742Z,101046.28
2022-10-30T07:02:36.648Z,101048.94
2022-10-30T07:05:03.434Z,101048.94
2022-10-30T07:07:30.350Z,101050.75
2022-10-30T07:09:57.055Z,101050.69
2022-10-30T07:12:23.779Z,101039.25
2022-10-30T07:14:50.405Z,101049.69
2022-10-30T07:17:17.113Z,101058.50
2022-10-30T07:19:43.902Z,101061.06
2022-10-30T07:22:10.634Z,101053.97
2022-10-30T07:24:37.416Z,101055.66
2022-10-30T07:27:04.149Z,101052.94
2022-10-30T07:29:30.787Z,101045.78
2022-10-30T07:32:02.993Z,101058.00
2022-10-30T07:34:30.467Z,101063.28
2022-10-30T07:36:57.199Z,101068.41
2022-10-30T07:39:23.900Z,101069.22
2022-10-30T07:41:50.788Z,101074.41
2022-10-30T07:44:17.909Z,101075.22
2022-10-30T07:46:44.718Z,101084.75
2022-10-30T07:49:11.620Z,101082.88
2022-10-30T07:51:38.355Z,101076.59
2022-10-30T07:54:05.162Z,101083.50
2022-10-30T07:56:32.008Z,101084.25
2022-10-30T07:58:58.686Z,101088.50
2022-10-30T08:01:25.625Z,101078.69
2022-10-30T08:03:52.515Z,101078.69
2022-10-30T08:06:22.927Z,101081.19
2022-10-30T08:08:53.034Z,101082.75
2022-10-30T08:11:19.816Z,101078.13
2022-10-30T08:13:46.819Z,101079.72
2022-10-30T08:16:13.640Z,101076.91
2022-10-30T08:18:42.700Z,101076.72
2022-10-30T08:21:09.959Z,101067.81
2022-10-30T08:23:39.393Z,101080.00
2022-10-30T08:26:06.472Z,101072.75
2022-10-30T08:28:33.417Z,101077.97
2022-10-30T08:31:00.829Z,101085.75
2022-10-30T08:33:27.633Z,101082.97
2022-10-30T08:35:56.831Z,101076.75
2022-10-30T08:38:23.935Z,101083.59
2022-10-30T08:40:50.761Z,101075.50
2022-10-30T08:43:18.052Z,101084.94
2022-10-30T08:45:45.117Z,101086.44
2022-10-30T08:48:14.270Z,101085.13
2022-10-30T08:50:44.477Z,101092.13
2022-10-30T08:53:13.192Z,101094.22
2022-10-30T08:55:40.601Z,101093.19
2022-10-30T08:58:09.240Z,101092.13
2022-10-30T09:00:35.996Z,101087.41
2022-10-30T09:03:03.449Z,101090.59
2022-10-30T09:05:30.765Z,101094.38
2022-10-30T09:07:59.267Z,101093.25
2022-10-30T09:10:27.200Z,101088.06
2022-10-30T09:12:56.118Z,101093.31
2022-10-30T09:15:23.227Z,101092.25
2022-10-30T09:17:59.309Z,101091.78
2022-10-30T09:20:27.857Z,101091.50
2022-10-30T09:22:55.160Z,101090.25
2022-10-30T09:25:22.273Z,101090.78
2022-10-30T09:27:49.265Z,101079.25
2022-10-30T09:30:16.469Z,101091.94
2022-10-30T09:32:43.414Z,101085.84
2022-10-30T09:35:10.602Z,101085.38
2022-10-30T09:37:38.407Z,101092.78
2022-10-30T09:40:06.335Z,101090.47
2022-10-30T09:42:47.334Z,101083.31
2022-10-30T09:45:46.360Z,101086.03
2022-10-30T09:48:41.268Z,101082.06
2022-10-30T09:51:39.198Z,101084.59
2022-10-30T09:54:05.993Z,101074.00
2022-10-30T09:56:46.113Z,101080.88
2022-10-30T09:59:32.716Z,101075.59
2022-10-30T10:02:32.805Z,101070.16
2022-10-30T10:05:07.519Z,101061.63
2022-10-30T10:07:41.164Z,101055.56
2022-10-30T10:10:18.484Z,101052.34
2022-10-30T10:12:47.870Z,101061.22
2022-10-30T10:15:22.860Z,101055.88
2022-10-30T10:17:49.694Z,101060.00
2022-10-30T10:20:43.992Z,101055.13
2022-10-30T10:23:28.710Z,101055.28
2022-10-30T10:25:58.834Z,101052.25
2022-10-30T10:28:48.619Z,101051.91
2022-10-30T10:31:44.573Z,101037.94
2022-10-30T10:34:18.071Z,101042.94
2022-10-30T10:37:03.661Z,101043.38
2022-10-30T10:39:41.465Z,101040.69
2022-10-30T10:42:35.697Z,101043.88
2022-10-30T10:45:32.930Z,101036.47
2022-10-30T10:48:25.095Z,101042.72
2022-10-30T10:51:02.715Z,101030.13
2022-10-30T10:54:09.951Z,101028.94
2022-10-30T10:56:40.452Z,101033.53
2022-10-30T10:59:15.150Z,101029.53
2022-10-30T11:01:46.255Z,101036.84
2022-10-30T11:04:24.787Z,101036.53
2022-10-30T11:06:53.198Z,101029.06
2022-10-30T11:09:24.614Z,101028.69
2022-10-30T11:11:52.996Z,101035.91
2022-10-30T11:14:22.864Z,101037.69
2022-10-30T11:17:07.330Z,101036.88
2022-10-30T11:19:35.834Z,101030.91
2022-10-30T11:22:06.844Z,101028.75
2022-10-30T11:24:34.977Z,101032.63
2022-10-30T11:27:30.864Z,101023.81
2022-10-30T11:29:59.301Z,101030.34
2022-10-30T11:32:34.940Z,101030.19
2022-10-30T11:35:07.902Z,101036.41
2022-10-30T11:37:39.599Z,101036.78
2022-10-30T11:40:08.361Z,101036.50
2022-10-30T11:42:35.632Z,101041.75
2022-10-30T11:45:03.068Z,101047.94
2022-10-30T11:50:05.159Z,101040.16
2022-10-30T11:52:37.116Z,101036.22
2022-10-30T11:55:24.194Z,101028.19
2022-10-30T11:57:53.294Z,101028.72
2022-10-30T12:00:22.208Z,101023.84
2022-10-30T12:02:51.636Z,101009.13
2022-10-30T12:05:35.526Z,101012.63
2022-10-30T12:08:08.657Z,101016.28
2022-10-30T12:10:47.780Z,101019.41
2022-10-30T12:13:16.804Z,101031.06
2022-10-30T12:15:45.782Z,101032.78
2022-10-30T12:21:00.036Z,101047.84
2022-10-30T12:23:28.523Z,101047.56
2022-10-30T12:25:58.320Z,101049.16
2022-10-30T12:28:30.787Z,101054.13
2022-10-30T12:31:08.882Z,101054.50
2022-10-30T12:33:39.488Z,101057.72
2022-10-30T12:36:28.175Z,101058.00
2022-10-30T12:38:59.966Z,101051.75
2022-10-30T12:41:47.086Z,101057.88
2022-10-30T12:44:22.418Z,101057.50
2022-10-30T12:47:02.495Z,101054.41
2022-10-30T12:49:38.630Z,101051.78
2022-10-30T12:52:40.544Z,101050.41
2022-10-30T12:55:21.562Z,101048.38
2022-10-30T12:58:11.654Z,101043.28
2022-10-30T13:00:50.682Z,101041.56
2022-10-30T13:03:22.974Z,101039.09
2022-10-30T13:05:56.102Z,101041.56
2022-10-30T13:08:31.019Z,101034.31
2022-10-30T13:11:10.010Z,101026.28
2022-10-30T13:13:39.823Z,101029.81
2022-10-30T13:16:17.728Z,101029.91
2022-10-30T13:18:44.537Z,101034.06
2022-10-30T13:21:11.248Z,101030.03
2022-10-30T13:24:01.660Z,101035.75
2022-10-30T13:26:35.803Z,101036.38
2022-10-30T13:29:21.581Z,101036.84
2022-10-30T13:32:01.489Z,101037.94
2022-10-30T13:34:37.007Z,101034.69
2022-10-30T13:37:25.752Z,101028.56
2022-10-30T13:40:22.054Z,101028.97
2022-10-30T13:43:02.646Z,101031.69
2022-10-30T13:45:44.167Z,101030.72
2022-10-30T13:48:34.588Z,101043.31
2022-10-30T13:51:18.492Z,101037.66
2022-10-30T13:53:46.883Z,101037.72
2022-10-30T13:56:17.407Z,101046.47
2022-10-30T13:58:49.206Z,101035.69
2022-10-30T14:01:32.179Z,101036.47
2022-10-30T14:04:21.259Z,101028.09
2022-10-30T14:06:52.440Z,101021.81
2022-10-30T14:09:43.510Z,101025.28
2022-10-30T14:12:48.094Z,101028.81
2022-10-30T14:15:37.980Z,101036.50
2022-10-30T14:18:13.865Z,101032.16
2022-10-30T14:20:50.731Z,101030.84
2022-10-30T14:23:23.504Z,101032.00
2022-10-30T14:26:02.421Z,101033.66
2022-10-30T14:28:38.531Z,101035.81
2022-10-30T14:31:13.820Z,101033.78
2022-10-30T14:33:40.752Z,101037.72
2022-10-30T14:36:33.453Z,101042.47
2022-10-30T14:39:09.279Z,101043.97
2022-10-30T14:41:54.698Z,101052.66
2022-10-30T14:44:31.384Z,101039.75
2022-10-30T14:47:35.408Z,101037.41
2022-10-30T14:50:10.862Z,101041.81
2022-10-30T14:52:52.232Z,101044.38
2022-10-30T14:55:40.421Z,101045.94
2022-10-30T14:58:19.934Z,101047.25
2022-10-30T15:00:46.675Z,101039.69
2022-10-30T15:03:16.253Z,101044.41
2022-10-30T15:05:49.009Z,101048.34
2022-10-30T15:08:25.574Z,101045.97
2022-10-30T15:11:17.829Z,101042.13
2022-10-30T15:13:47.206Z,101047.84
2022-10-30T15:16:16.333Z,101057.91
2022-10-30T15:19:01.953Z,101055.78
2022-10-30T15:21:33.053Z,101057.06
2022-10-30T15:24:01.194Z,101049.47
2022-10-30T15:26:35.664Z,101054.28
2022-10-30T15:29:02.997Z,101052.75
2022-10-30T15:31:29.993Z,101054.81
2022-10-30T15:34:00.128Z,101053.28
2022-10-30T15:36:31.189Z,101061.44
2022-10-30T15:39:11.695Z,101051.00
2022-10-30T15:41:53.941Z,101061.72
2022-10-30T15:44:28.991Z,101071.31
2022-10-30T15:46:57.024Z,101070.84
2022-10-30T15:49:31.051Z,101060.47
2022-10-30T15:51:58.518Z,101059.09
2022-10-30T15:54:25.977Z,101055.78
2022-10-30T15:57:31.416Z,101065.84
2022-10-30T15:59:49.981Z,101062.31
2022-10-30T16:02:22.562Z,101066.03
2022-10-30T16:04:50.037Z,101064.41
2022-10-30T16:07:25.075Z,101063.78
2022-10-30T16:10:01.059Z,101064.06
2022-10-30T16:12:29.753Z,101068.88
2022-10-30T16:14:57.459Z,101062.00
2022-10-30T16:17:25.497Z,101054.34
2022-10-30T16:19:54.460Z,101057.06
2022-10-30T16:22:27.329Z,101045.72
2022-10-30T16:24:56.153Z,101052.16
2022-10-30T16:27:24.513Z,101048.84
2022-10-30T16:29:53.902Z,101058.72
2022-10-30T16:32:22.797Z,101055.31
2022-10-30T16:34:50.653Z,101066.13
2022-10-30T16:37:43.963Z,101061.88
2022-10-30T16:40:23.676Z,101048.75
2022-10-30T16:43:01.433Z,101050.69
2022-10-30T16:45:28.913Z,101061.44
2022-10-30T16:48:08.355Z,101056.19
2022-10-30T16:50:37.272Z,101056.31
2022-10-30T16:53:11.412Z,101065.25
2022-10-30T16:55:38.737Z,101069.09
2022-10-30T16:58:05.420Z,101071.81
2022-10-30T17:00:36.194Z,101069.28
2022-10-30T17:03:08.411Z,101076.41
2022-10-30T17:05:37.111Z,101066.88
2022-10-30T17:08:05.011Z,101073.19
2022-10-30T17:10:36.939Z,101069.72
2022-10-30T17:13:43.916Z,101082.06
2022-10-30T17:16:31.313Z,101084.97
2022-10-30T17:19:21.957Z,101080.72
2022-10-30T17:21:51.313Z,101083.44
2022-10-30T17:24:31.211Z,101090.59
2022-10-30T17:27:00.357Z,101084.56
2022-10-30T17:29:42.167Z,101090.00
2022-10-30T17:32:28.797Z,101090.13
2022-10-30T17:35:06.449Z,101090.25
2022-10-30T17:37:33.123Z,101096.53
2022-10-30T17:40:02.528Z,101091.22
2022-10-30T17:42:29.134Z,101098.47
2022-10-30T17:44:55.778Z,101103.75
2022-10-30T17:47:23.731Z,101096.72
2022-10-30T17:49:50.445Z,101108.31
2022-10-30T17:52:19.480Z,101102.22
2022-10-30T17:54:46.088Z,101105.84
2022-10-30T17:57:14.875Z,101111.34
2022-10-30T17:59:42.836Z,101114.06
2022-10-30T18:02:15.615Z,101107.91
2022-10-30T18:04:45.439Z,101102.69
2022-10-30T18:07:12.614Z,101098.28
2022-10-30T18:09:39.987Z,101101.97
2022-10-30T18:12:07.875Z,101098.47
2022-10-30T18:14:34.557Z,101098.47
2022-10-30T18:17:01.344Z,101103.94
2022-10-30T18:19:28.080Z,101106.69
2022-10-30T18:21:57.593Z,101111.97
2022-10-30T18:24:24.184Z,101102.31
2022-10-30T18:26:50.845Z,101103.22
2022-10-30T18:29:17.509Z,101105.94
2022-10-30T18:31:44.367Z,101095.47
2022-10-30T18:34:23.049Z,101103.41
2022-10-30T18:36:50.234Z,101093.72
2022-10-30T18:39:16.887Z,101095.53
2022-10-30T18:41:45.088Z,101098.31
2022-10-30T18:44:16.358Z,101101.00
2022-10-30T18:46:43.745Z,101100.19
2022-10-30T18:49:10.816Z,101100.31
2022-10-30T18:51:37.993Z,101105.72
2022-10-30T18:54:23.798Z,101101.28
2022-10-30T18:56:50.363Z,101100.47
2022-10-30T18:59:17.212Z,101100.44
2022-10-30T19:01:43.943Z,101105.72
2022-10-30T19:04:10.807Z,101104.88
2022-10-30T19:06:38.935Z,101104.09
2022-10-30T19:09:05.901Z,101107.66
2022-10-30T19:11:32.997Z,101107.75
2022-10-30T19:13:59.749Z,101101.69
2022-10-30T19:16:26.791Z,101105.25
2022-10-30T19:18:53.849Z,101102.63
2022-10-30T19:21:23.259Z,101107.06
2022-10-30T19:23:49.997Z,101110.66
2022-10-30T19:26:17.487Z,101101.91
2022-10-30T19:28:45.260Z,101106.31
2022-10-30T19:31:17.277Z,101110.72
2022-10-30T19:33:44.605Z,101102.00
2022-10-30T19:36:36.029Z,101098.47
2022-10-30T19:39:08.850Z,101094.97
2022-10-30T19:41:36.848Z,101102.91
2022-10-30T19:44:04.083Z,101101.16
2022-10-30T19:46:30.770Z,101098.59
2022-10-30T19:48:59.036Z,101104.81
2022-10-30T19:51:27.389Z,101094.31
2022-10-30T19:53:54.220Z,101099.72
2022-10-30T19:56:21.420Z,101098.91
2022-10-30T19:58:48.450Z,101096.22
2022-10-30T20:01:15.892Z,101091.81
2022-10-30T20:03:43.432Z,101101.50
2022-10-30T20:06:13.008Z,101101.63
2022-10-30T20:08:40.498Z,101107.81
2022-10-30T20:11:07.686Z,101099.00
2022-10-30T20:13:34.439Z,101092.94
2022-10-30T20:16:04.996Z,101087.53
2022-10-30T20:18:33.935Z,101099.03
2022-10-30T20:21:03.229Z,101092.06
2022-10-30T20:23:29.889Z,101103.56
2022-10-30T20:26:01.858Z,101097.47
2022-10-30T20:28:32.008Z,101096.66
2022-10-30T20:30:58.760Z,101102.00
2022-10-30T20:33:25.881Z,101101.91
2022-10-30T20:35:54.805Z,101093.22
2022-10-30T20:38:26.497Z,101095.84
2022-10-30T20:40:53.812Z,101101.16
2022-10-30T20:43:23.585Z,101099.47
2022-10-30T20:45:50.314Z,101099.50
2022-10-30T20:48:17.080Z,101109.19
2022-10-30T20:50:47.702Z,101108.38
2022-10-30T20:53:17.181Z,101109.28
2022-10-30T20:55:44.505Z,101104.00
2022-10-30T20:58:11.224Z,101102.25
2022-10-30T21:00:37.962Z,101107.56
2022-10-30T21:03:05.658Z,101109.38
2022-10-30T21:05:49.087Z,101108.50
2022-10-30T21:08:15.987Z,101111.09
2022-10-30T21:10:43.081Z,101108.47
2022-10-30T21:13:11.180Z,101106.72
2022-10-30T21:15:42.940Z,101105.91
2022-10-30T21:18:12.243Z,101110.31
2022-10-30T21:20:40.945Z,101098.06
2022-10-30T21:23:08.398Z,101105.16
2022-10-30T21:25:35.827Z,101101.63
2022-10-30T21:28:02.722Z,101097.31
2022-10-30T21:30:29.711Z,101099.00
2022-10-30T21:32:57.300Z,101103.44
2022-10-30T21:35:24.113Z,101105.22
2022-10-30T21:37:51.108Z,101100.00
2022-10-30T21:40:20.213Z,101099.06
2022-10-30T21:42:51.119Z,101094.72
2022-10-30T21:45:18.277Z,101096.47
2022-10-30T21:47:48.186Z,101107.03
2022-10-30T21:50:14.844Z,101100.00
2022-10-30T21:52:41.488Z,101094.72
2022-10-30T21:55:08.567Z,101100.97
2022-10-30T21:57:36.265Z,101093.06
2022-10-30T22:00:06.292Z,101100.13
2022-10-30T22:02:34.463Z,101090.50
2022-10-30T22:05:01.329Z,101094.88
2022-10-30T22:07:27.999Z,101105.41
2022-10-30T22:09:54.833Z,101101.00
2022-10-30T22:12:24.745Z,101101.91
2022-10-30T22:14:51.390Z,101109.81
2022-10-30T22:17:20.566Z,101109.88
2022-10-30T22:19:47.433Z,101109.88
2022-10-30T22:22:14.374Z,101113.41
2022-10-30T22:24:41.022Z,101122.22
2022-10-30T22:27:07.804Z,101124.81
2022-10-30T22:29:34.699Z,101120.47
2022-10-30T22:32:05.075Z,101122.22
2022-10-30T22:34:31.680Z,101122.22
2022-10-30T22:37:01.786Z,101130.13
2022-10-30T22:39:28.569Z,101129.25
2022-10-30T22:41:55.742Z,101127.53
2022-10-30T22:44:24.164Z,101120.53
2022-10-30T22:46:51.851Z,101131.06
2022-10-30T22:49:18.464Z,101131.94
2022-10-30T22:51:45.107Z,101128.41
2022-10-30T22:54:14.623Z,101130.19
2022-10-30T22:56:41.452Z,101127.56
2022-10-30T22:59:11.640Z,101120.53
2022-10-30T23:01:44.336Z,101127.50
2022-10-30T23:04:12.783Z,101129.31
2022-10-30T23:06:39.553Z,101127.53
2022-10-30T23:09:11.071Z,101124.91
2022-10-30T23:11:38.154Z,101118.78
2022-10-30T23:14:05.257Z,101125.81
2022-10-30T23:16:32.464Z,101117.09
2022-10-30T23:19:00.650Z,101110.94
2022-10-30T23:21:30.055Z,101118.84
2022-10-30T23:23:57.429Z,101112.69
2022-10-30T23:26:26.395Z,101128.50
2022-10-30T23:28:54.862Z,101124.09
2022-10-30T23:31:34.740Z,101132.03
2022-10-30T23:34:05.263Z,101125.88
2022-10-30T23:36:33.915Z,101126.78
2022-10-30T23:39:02.717Z,101130.31
2022-10-30T23:41:31.607Z,101131.16
2022-10-30T23:44:00.941Z,101124.19
2022-10-30T23:46:28.298Z,101141.72
2022-10-30T23:48:55.324Z,101133.81
2022-10-30T23:51:22.230Z,101132.06
2022-10-30T23:53:48.998Z,101127.69
2022-10-30T23:56:16.565Z,101132.06
2022-10-30T23:58:48.261Z,101125.94
